createdAt,value
2019-04-26T00:00:02.705Z,1004.86
2019-04-26T00:01:02.697Z,1004.89
2019-04-26T00:02:02.682Z,1004.86
2019-04-26T00:03:02.679Z,1004.85
2019-04-26T00:04:02.664Z,1004.88
2019-04-26T00:05:02.651Z,1004.86
2019-04-26T00:06:02.645Z,1004.87
2019-04-26T00:07:02.629Z,1004.85
2019-04-26T00:08:02.666Z,1004.88
2019-04-26T00:09:02.607Z,1004.88
2019-04-26T00:10:02.605Z,1004.82
2019-04-26T00:11:02.590Z,1004.80
2019-04-26T00:12:02.591Z,1004.80
2019-04-26T00:13:02.563Z,1004.81
2019-04-26T00:14:02.560Z,1004.78
2019-04-26T00:15:02.581Z,1004.78
2019-04-26T00:16:02.533Z,1004.77
2019-04-26T00:17:02.534Z,1004.76
2019-04-26T00:18:02.511Z,1004.75
2019-04-26T00:19:02.499Z,1004.79
2019-04-26T00:20:02.491Z,1004.77
2019-04-26T00:21:02.480Z,1004.76
2019-04-26T00:22:02.466Z,1004.73
2019-04-26T00:23:02.464Z,1004.70
2019-04-26T00:24:02.445Z,1004.71
2019-04-26T00:25:02.433Z,1004.69
2019-04-26T00:26:02.420Z,1004.68
2019-04-26T00:27:02.410Z,1004.66
2019-04-26T00:28:02.405Z,1004.72
2019-04-26T00:29:02.390Z,1004.69
2019-04-26T00:30:02.381Z,1004.71
2019-04-26T00:31:02.370Z,1004.73
2019-04-26T00:32:02.359Z,1004.73
2019-04-26T00:33:02.351Z,1004.69
2019-04-26T00:34:02.336Z,1004.70
2019-04-26T00:35:02.326Z,1004.71
2019-04-26T00:36:02.315Z,1004.66
2019-04-26T00:37:02.303Z,1004.64
2019-04-26T00:38:02.293Z,1004.63
2019-04-26T00:39:02.281Z,1004.63
2019-04-26T00:40:02.280Z,1004.56
2019-04-26T00:41:02.262Z,1004.48
2019-04-26T00:42:02.249Z,1004.52
2019-04-26T00:43:02.238Z,1004.46
2019-04-26T00:44:02.239Z,1004.48
2019-04-26T00:45:02.222Z,1004.42
2019-04-26T00:46:02.219Z,1004.42
2019-04-26T00:47:02.196Z,1004.45
2019-04-26T00:48:02.185Z,1004.45
2019-04-26T00:49:02.173Z,1004.40
2019-04-26T00:50:02.218Z,1004.41
2019-04-26T00:51:02.153Z,1004.38
2019-04-26T00:52:02.147Z,1004.38
2019-04-26T00:53:02.133Z,1004.34
2019-04-26T00:54:02.121Z,1004.40
2019-04-26T00:55:02.114Z,1004.39
2019-04-26T00:56:02.099Z,1004.35
2019-04-26T00:57:02.094Z,1004.33
2019-04-26T00:58:02.075Z,1004.30
2019-04-26T00:59:02.067Z,1004.29
2019-04-26T01:00:02.057Z,1004.29
2019-04-26T01:01:02.056Z,1004.25
2019-04-26T01:02:02.037Z,1004.21
2019-04-26T01:03:02.030Z,1004.24
2019-04-26T01:04:02.012Z,1004.20
2019-04-26T01:05:02.010Z,1004.20
2019-04-26T01:06:01.991Z,1004.18
2019-04-26T01:07:01.981Z,1004.18
2019-04-26T01:08:01.978Z,1004.19
2019-04-26T01:09:01.961Z,1004.17
2019-04-26T01:10:01.949Z,1004.18
2019-04-26T01:11:01.944Z,1004.20
2019-04-26T01:12:01.932Z,1004.17
2019-04-26T01:13:01.928Z,1004.16
2019-04-26T01:14:01.913Z,1004.17
2019-04-26T01:15:01.915Z,1004.19
2019-04-26T01:16:01.885Z,1004.17
2019-04-26T01:17:01.874Z,1004.10
2019-04-26T01:18:01.872Z,1004.11
2019-04-26T01:19:01.856Z,1004.14
2019-04-26T01:20:01.849Z,1004.06
2019-04-26T01:21:01.831Z,1004.05
2019-04-26T01:22:01.824Z,1004.08
2019-04-26T01:23:01.811Z,1004.03
2019-04-26T01:24:01.813Z,1004.02
2019-04-26T01:25:01.795Z,1003.99
2019-04-26T01:26:01.786Z,1003.94
2019-04-26T01:27:01.768Z,1003.96
2019-04-26T01:28:01.762Z,1003.96
2019-04-26T01:29:01.745Z,1003.96
2019-04-26T01:30:01.740Z,1003.94
2019-04-26T01:31:01.727Z,1003.90
2019-04-26T01:32:01.715Z,1003.90
2019-04-26T01:33:01.701Z,1003.89
2019-04-26T01:34:01.692Z,1003.87
2019-04-26T01:35:01.683Z,1003.91
2019-04-26T01:36:12.340Z,1003.90
2019-04-26T01:37:02.658Z,1003.87
2019-04-26T01:38:01.665Z,1003.87
2019-04-26T01:39:01.637Z,1003.87
2019-04-26T01:40:01.627Z,1003.85
2019-04-26T01:41:01.624Z,1003.88
2019-04-26T01:42:01.608Z,1003.86
2019-04-26T01:43:01.604Z,1003.87
2019-04-26T01:44:01.587Z,1003.84
2019-04-26T01:45:01.576Z,1003.82
2019-04-26T01:46:01.564Z,1003.85
2019-04-26T01:47:01.555Z,1003.86
2019-04-26T01:48:01.549Z,1003.84
2019-04-26T01:49:01.532Z,1003.80
2019-04-26T01:50:01.537Z,1003.79
2019-04-26T01:51:01.514Z,1003.80
2019-04-26T01:52:01.502Z,1003.76
2019-04-26T01:53:01.489Z,1003.77
2019-04-26T01:54:01.480Z,1003.74
2019-04-26T01:55:01.527Z,1003.73
2019-04-26T01:56:01.460Z,1003.72
2019-04-26T01:57:01.447Z,1003.71
2019-04-26T01:58:01.437Z,1003.69
2019-04-26T01:59:01.426Z,1003.71
2019-04-26T02:00:01.420Z,1003.68
2019-04-26T02:01:01.408Z,1003.73
2019-04-26T02:02:01.392Z,1003.68
2019-04-26T02:03:01.384Z,1003.67
2019-04-26T02:04:01.374Z,1003.65
2019-04-26T02:05:01.364Z,1003.67
2019-04-26T02:06:01.361Z,1003.67
2019-04-26T02:07:01.341Z,1003.69
2019-04-26T02:08:01.329Z,1003.65
2019-04-26T02:09:01.319Z,1003.68
2019-04-26T02:10:01.307Z,1003.64
2019-04-26T02:11:01.297Z,1003.67
2019-04-26T02:12:01.288Z,1003.66
2019-04-26T02:13:01.276Z,1003.66
2019-04-26T02:14:01.265Z,1003.65
2019-04-26T02:15:01.255Z,1003.66
2019-04-26T02:16:01.241Z,1003.66
2019-04-26T02:17:01.240Z,1003.61
2019-04-26T02:18:01.226Z,1003.58
2019-04-26T02:19:01.230Z,1003.60
2019-04-26T02:20:01.203Z,1003.60
2019-04-26T02:21:01.197Z,1003.57
2019-04-26T02:22:01.179Z,1003.54
2019-04-26T02:23:01.174Z,1003.56
2019-04-26T02:24:01.164Z,1003.55
2019-04-26T02:25:01.154Z,1003.51
2019-04-26T02:26:01.136Z,1003.51
2019-04-26T02:27:01.138Z,1003.50
2019-04-26T02:28:01.120Z,1003.52
2019-04-26T02:29:01.102Z,1003.49
2019-04-26T02:30:01.114Z,1003.48
2019-04-26T02:31:01.085Z,1003.48
2019-04-26T02:32:01.070Z,1003.45
2019-04-26T02:33:01.059Z,1003.44
2019-04-26T02:34:01.050Z,1003.43
2019-04-26T02:35:01.039Z,1003.47
2019-04-26T02:36:01.026Z,1003.48
2019-04-26T02:37:01.019Z,1003.45
2019-04-26T02:38:01.016Z,1003.48
2019-04-26T02:39:00.994Z,1003.46
2019-04-26T02:40:00.991Z,1003.41
2019-04-26T02:41:00.972Z,1003.41
2019-04-26T02:42:00.960Z,1003.37
2019-04-26T02:43:00.951Z,1003.37
2019-04-26T02:44:00.939Z,1003.40
2019-04-26T02:45:00.928Z,1003.35
2019-04-26T02:46:00.918Z,1003.31
2019-04-26T02:47:00.911Z,1003.33
2019-04-26T02:48:00.897Z,1003.34
2019-04-26T02:49:00.886Z,1003.31
2019-04-26T02:50:00.875Z,1003.30
2019-04-26T02:51:00.866Z,1003.30
2019-04-26T02:52:00.853Z,1003.28
2019-04-26T02:53:00.840Z,1003.31
2019-04-26T02:54:00.828Z,1003.25
2019-04-26T02:55:00.836Z,1003.23
2019-04-26T02:56:00.810Z,1003.23
2019-04-26T02:57:00.814Z,1003.28
2019-04-26T02:58:00.785Z,1003.26
2019-04-26T02:59:00.786Z,1003.22
2019-04-26T03:00:00.763Z,1003.24
2019-04-26T03:01:00.754Z,1003.25
2019-04-26T03:02:00.742Z,1003.22
2019-04-26T03:03:00.730Z,1003.22
2019-04-26T03:04:00.718Z,1003.22
2019-04-26T03:05:00.708Z,1003.22
2019-04-26T03:06:00.703Z,1003.24
2019-04-26T03:07:03.510Z,1003.21
2019-04-26T03:08:00.694Z,1003.23
2019-04-26T03:09:00.664Z,1003.21
2019-04-26T03:10:00.654Z,1003.18
2019-04-26T03:11:00.646Z,1003.20
2019-04-26T03:12:00.632Z,1003.17
2019-04-26T03:13:00.624Z,1003.13
2019-04-26T03:14:00.613Z,1003.14
2019-04-26T03:15:13.580Z,1003.16
2019-04-26T03:16:01.596Z,1003.16
2019-04-26T03:17:00.582Z,1003.14
2019-04-26T03:18:00.572Z,1003.16
2019-04-26T03:19:00.578Z,1003.16
2019-04-26T03:20:00.542Z,1003.09
2019-04-26T03:21:00.533Z,1003.12
2019-04-26T03:22:00.521Z,1003.10
2019-04-26T03:23:00.518Z,1003.13
2019-04-26T03:24:00.502Z,1003.14
2019-04-26T03:25:00.501Z,1003.07
2019-04-26T03:26:00.478Z,1003.11
2019-04-26T03:27:00.474Z,1003.10
2019-04-26T03:28:00.457Z,1003.08
2019-04-26T03:29:00.446Z,1003.06
2019-04-26T03:30:18.899Z,1003.07
2019-04-26T03:31:01.424Z,1003.11
2019-04-26T03:32:00.413Z,1003.13
2019-04-26T03:33:00.468Z,1003.05
2019-04-26T03:34:00.422Z,1003.08
2019-04-26T03:35:00.386Z,1003.08
2019-04-26T03:36:00.394Z,1003.09
2019-04-26T03:37:00.389Z,1003.07
2019-04-26T03:38:00.347Z,1003.06
2019-04-26T03:39:00.335Z,1003.06
2019-04-26T03:40:00.341Z,1003.06
2019-04-26T03:41:00.359Z,1003.06
2019-04-26T03:42:00.309Z,1003.08
2019-04-26T03:43:00.290Z,1003.05
2019-04-26T03:44:00.283Z,1003.06
2019-04-26T03:45:00.269Z,1003.08
2019-04-26T03:46:00.268Z,1003.10
2019-04-26T03:47:00.263Z,1003.10
2019-04-26T03:48:00.236Z,1003.10
2019-04-26T03:49:00.226Z,1003.09
2019-04-26T03:50:00.218Z,1003.13
2019-04-26T03:51:00.204Z,1003.11
2019-04-26T03:52:00.193Z,1003.11
2019-04-26T03:53:00.223Z,1003.09
2019-04-26T03:54:00.173Z,1003.09
2019-04-26T03:55:00.160Z,1003.10
2019-04-26T03:56:00.149Z,1003.08
2019-04-26T03:57:00.149Z,1003.08
2019-04-26T03:58:00.139Z,1003.10
2019-04-26T03:59:00.158Z,1003.06
2019-04-26T04:00:00.120Z,1003.04
2019-04-26T04:01:00.100Z,1003.06
2019-04-26T04:02:00.082Z,1003.06
2019-04-26T04:03:00.072Z,1003.09
2019-04-26T04:04:00.070Z,1003.09
2019-04-26T04:05:00.048Z,1003.12
2019-04-26T04:06:00.037Z,1003.13
2019-04-26T04:07:04.574Z,1003.11
2019-04-26T04:08:00.019Z,1003.12
2019-04-26T04:09:00.009Z,1003.14
2019-04-26T04:10:00.008Z,1003.12
2019-04-26T04:10:59.985Z,1003.09
2019-04-26T04:12:10.746Z,1003.08
2019-04-26T04:13:00.969Z,1003.06
2019-04-26T04:14:00.003Z,1003.08
2019-04-26T04:15:00.026Z,1003.06
2019-04-26T04:15:59.931Z,1003.06
2019-04-26T04:16:59.973Z,1003.04
2019-04-26T04:17:59.908Z,1003.09
2019-04-26T04:18:59.904Z,1003.02
2019-04-26T04:19:59.889Z,1003.04
2019-04-26T04:20:59.878Z,1003.06
2019-04-26T04:21:59.865Z,1003.09
2019-04-26T04:22:59.852Z,1003.10
2019-04-26T04:23:59.842Z,1003.11
2019-04-26T04:24:59.839Z,1003.10
2019-04-26T04:25:59.820Z,1003.12
2019-04-26T04:26:59.840Z,1003.08
2019-04-26T04:28:03.170Z,1003.11
2019-04-26T04:28:59.785Z,1003.10
2019-04-26T04:29:59.776Z,1003.10
2019-04-26T04:30:59.777Z,1003.09
2019-04-26T04:31:59.760Z,1003.06
2019-04-26T04:32:59.746Z,1003.06
2019-04-26T04:33:59.731Z,1003.06
2019-04-26T04:34:59.722Z,1003.06
2019-04-26T04:35:59.719Z,1003.08
2019-04-26T04:36:59.704Z,1003.09
2019-04-26T04:38:08.368Z,1003.08
2019-04-26T04:39:11.123Z,1003.10
2019-04-26T04:40:00.667Z,1003.13
2019-04-26T04:40:59.654Z,1003.13
2019-04-26T04:41:59.652Z,1003.11
2019-04-26T04:42:59.756Z,1003.14
2019-04-26T04:43:59.652Z,1003.17
2019-04-26T04:44:59.611Z,1003.13
2019-04-26T04:45:59.689Z,1003.14
2019-04-26T04:46:59.591Z,1003.11
2019-04-26T04:47:59.581Z,1003.12
2019-04-26T04:48:59.576Z,1003.15
2019-04-26T04:49:59.581Z,1003.17
2019-04-26T04:50:59.548Z,1003.13
2019-04-26T04:51:59.549Z,1003.14
2019-04-26T04:52:59.529Z,1003.16
2019-04-26T04:53:59.515Z,1003.09
2019-04-26T04:55:07.188Z,1003.12
2019-04-26T04:56:00.494Z,1003.11
2019-04-26T04:56:59.483Z,1003.12
2019-04-26T04:57:59.475Z,1003.15
2019-04-26T04:58:59.471Z,1003.12
2019-04-26T04:59:59.451Z,1003.16
2019-04-26T05:00:59.448Z,1003.19
2019-04-26T05:01:59.431Z,1003.26
2019-04-26T05:02:59.419Z,1003.19
2019-04-26T05:03:59.411Z,1003.19
2019-04-26T05:04:59.396Z,1003.21
2019-04-26T05:06:07.280Z,1003.27
2019-04-26T05:07:00.376Z,1003.24
2019-04-26T05:08:06.282Z,1003.23
2019-04-26T05:09:00.359Z,1003.23
2019-04-26T05:09:59.343Z,1003.23
2019-04-26T05:10:59.334Z,1003.24
2019-04-26T05:11:59.323Z,1003.27
2019-04-26T05:12:59.312Z,1003.19
2019-04-26T05:13:59.302Z,1003.24
2019-04-26T05:14:59.293Z,1003.23
2019-04-26T05:15:59.279Z,1003.24
2019-04-26T05:16:59.268Z,1003.18
2019-04-26T05:17:59.272Z,1003.23
2019-04-26T05:18:59.246Z,1003.20
2019-04-26T05:19:59.240Z,1003.25
2019-04-26T05:20:59.245Z,1003.24
2019-04-26T05:21:59.222Z,1003.23
2019-04-26T05:22:59.208Z,1003.26
2019-04-26T05:23:59.201Z,1003.26
2019-04-26T05:24:59.189Z,1003.28
2019-04-26T05:25:59.170Z,1003.27
2019-04-26T05:26:59.162Z,1003.22
2019-04-26T05:27:59.150Z,1003.21
2019-04-26T05:28:59.151Z,1003.22
2019-04-26T05:29:59.132Z,1003.26
2019-04-26T05:30:59.118Z,1003.24
2019-04-26T05:31:59.106Z,1003.19
2019-04-26T05:32:59.097Z,1003.19
2019-04-26T05:33:59.087Z,1003.19
2019-04-26T05:34:59.079Z,1003.15
2019-04-26T05:35:59.065Z,1003.17
2019-04-26T05:36:59.053Z,1003.17
2019-04-26T05:37:59.047Z,1003.11
2019-04-26T05:38:59.042Z,1003.11
2019-04-26T05:39:59.023Z,1003.11
2019-04-26T05:40:59.018Z,1003.10
2019-04-26T05:41:59.000Z,1003.05
2019-04-26T05:42:58.991Z,1003.09
2019-04-26T05:43:59.041Z,1003.14
2019-04-26T05:44:58.985Z,1003.05
2019-04-26T05:45:58.969Z,1003.08
2019-04-26T05:46:58.946Z,1003.12
2019-04-26T05:48:10.369Z,1003.12
2019-04-26T05:48:59.926Z,1003.15
2019-04-26T05:49:58.914Z,1003.12
2019-04-26T05:50:58.905Z,1003.13
2019-04-26T05:51:58.894Z,1003.10
2019-04-26T05:52:59.775Z,1003.12
2019-04-26T05:53:58.873Z,1003.12
2019-04-26T05:54:58.863Z,1003.09
2019-04-26T05:55:58.852Z,1003.10
2019-04-26T05:56:58.843Z,1003.11
2019-04-26T05:57:58.835Z,1003.06
2019-04-26T05:59:01.414Z,1003.06
2019-04-26T05:59:58.945Z,1003.10
2019-04-26T06:00:58.797Z,1003.07
2019-04-26T06:01:59.079Z,1003.08
2019-04-26T06:02:59.051Z,1003.11
2019-04-26T06:03:58.775Z,1003.06
2019-04-26T06:04:59.285Z,1003.15
2019-04-26T06:05:58.744Z,1003.18
2019-04-26T06:06:59.336Z,1003.20
2019-04-26T06:07:58.723Z,1003.22
2019-04-26T06:08:59.627Z,1003.22
2019-04-26T06:09:58.737Z,1003.25
2019-04-26T06:10:58.692Z,1003.28
2019-04-26T06:11:58.799Z,1003.24
2019-04-26T06:12:58.796Z,1003.22
2019-04-26T06:13:59.871Z,1003.22
2019-04-26T06:14:58.923Z,1003.22
2019-04-26T06:15:58.638Z,1003.18
2019-04-26T06:16:59.242Z,1003.18
2019-04-26T06:17:59.663Z,1003.18
2019-04-26T06:18:59.665Z,1003.22
2019-04-26T06:19:59.445Z,1003.21
2019-04-26T06:20:59.731Z,1003.23
2019-04-26T06:21:58.579Z,1003.26
2019-04-26T06:22:59.680Z,1003.25
2019-04-26T06:23:58.552Z,1003.26
2019-04-26T06:24:58.553Z,1003.24
2019-04-26T06:26:01.420Z,1003.25
2019-04-26T06:27:09.294Z,1003.25
2019-04-26T06:28:00.629Z,1003.22
2019-04-26T06:28:59.049Z,1003.22
2019-04-26T06:29:58.824Z,1003.23
2019-04-26T06:30:59.395Z,1003.23
2019-04-26T06:31:58.476Z,1003.20
2019-04-26T06:33:03.154Z,1003.19
2019-04-26T06:33:59.461Z,1003.18
2019-04-26T06:34:59.326Z,1003.16
2019-04-26T06:35:59.298Z,1003.11
2019-04-26T06:36:59.657Z,1003.10
2019-04-26T06:37:58.403Z,1003.11
2019-04-26T06:38:58.393Z,1003.12
2019-04-26T06:39:58.386Z,1003.12
2019-04-26T06:40:58.377Z,1003.15
2019-04-26T06:41:58.521Z,1003.09
2019-04-26T06:42:58.351Z,1003.10
2019-04-26T06:43:58.353Z,1003.08
2019-04-26T06:44:58.380Z,1003.11
2019-04-26T06:45:58.609Z,1003.09
2019-04-26T06:46:58.311Z,1003.09
2019-04-26T06:47:58.830Z,1003.10
2019-04-26T06:48:58.954Z,1003.08
2019-04-26T06:49:58.294Z,1003.10
2019-04-26T06:50:58.482Z,1003.10
2019-04-26T06:51:58.488Z,1003.11
2019-04-26T06:52:58.257Z,1003.08
2019-04-26T06:53:58.615Z,1003.09
2019-04-26T06:54:58.225Z,1003.08
2019-04-26T06:55:59.119Z,1003.06
2019-04-26T06:57:08.003Z,1003.09
2019-04-26T06:57:59.977Z,1003.03
2019-04-26T06:58:59.088Z,1002.98
2019-04-26T06:59:59.161Z,1002.97
2019-04-26T07:00:58.986Z,1002.99
2019-04-26T07:01:59.153Z,1002.96
2019-04-26T07:02:58.936Z,1002.91
2019-04-26T07:03:58.319Z,1002.93
2019-04-26T07:04:59.244Z,1002.92
2019-04-26T07:05:58.932Z,1002.90
2019-04-26T07:06:58.235Z,1002.90
2019-04-26T07:07:58.086Z,1002.95
2019-04-26T07:08:59.625Z,1002.92
2019-04-26T07:09:59.118Z,1002.92
2019-04-26T07:10:59.237Z,1002.94
2019-04-26T07:11:59.387Z,1002.90
2019-04-26T07:12:58.695Z,1002.91
2019-04-26T07:13:59.170Z,1002.90
2019-04-26T07:14:58.018Z,1002.91
2019-04-26T07:15:58.001Z,1002.93
2019-04-26T07:16:58.220Z,1002.94
2019-04-26T07:17:57.983Z,1002.93
2019-04-26T07:18:57.968Z,1002.97
2019-04-26T07:19:59.658Z,1002.98
2019-04-26T07:20:57.947Z,1002.93
2019-04-26T07:21:57.939Z,1002.93
2019-04-26T07:22:57.930Z,1002.92
2019-04-26T07:23:57.917Z,1002.91
2019-04-26T07:24:57.904Z,1002.86
2019-04-26T07:25:57.903Z,1002.85
2019-04-26T07:26:57.896Z,1002.85
2019-04-26T07:28:06.418Z,1002.86
2019-04-26T07:29:01.150Z,1002.85
2019-04-26T07:29:57.873Z,1002.80
2019-04-26T07:30:57.842Z,1002.78
2019-04-26T07:31:57.829Z,1002.74
2019-04-26T07:32:57.820Z,1002.77
2019-04-26T07:33:57.816Z,1002.73
2019-04-26T07:34:57.799Z,1002.78
2019-04-26T07:35:59.015Z,1002.75
2019-04-26T07:36:57.777Z,1002.76
2019-04-26T07:37:57.766Z,1002.79
2019-04-26T07:39:10.507Z,1002.79
2019-04-26T07:39:58.750Z,1002.79
2019-04-26T07:40:57.734Z,1002.79
2019-04-26T07:41:57.728Z,1002.82
2019-04-26T07:42:57.714Z,1002.78
2019-04-26T07:43:57.700Z,1002.81
2019-04-26T07:44:57.699Z,1002.80
2019-04-26T07:45:57.685Z,1002.79
2019-04-26T07:46:57.675Z,1002.76
2019-04-26T07:47:57.658Z,1002.79
2019-04-26T07:48:57.647Z,1002.79
2019-04-26T07:49:57.638Z,1002.80
2019-04-26T07:50:57.633Z,1002.76
2019-04-26T07:51:57.619Z,1002.83
2019-04-26T07:52:57.626Z,1002.80
2019-04-26T07:53:57.596Z,1002.81
2019-04-26T07:54:57.584Z,1002.79
2019-04-26T07:55:57.599Z,1002.78
2019-04-26T07:56:57.563Z,1002.80
2019-04-26T07:57:57.560Z,1002.79
2019-04-26T07:58:57.546Z,1002.80
2019-04-26T07:59:57.536Z,1002.79
2019-04-26T08:00:57.519Z,1002.76
2019-04-26T08:01:57.511Z,1002.78
2019-04-26T08:02:57.500Z,1002.73
2019-04-26T08:03:57.490Z,1002.77
2019-04-26T08:04:57.482Z,1002.73
2019-04-26T08:05:57.475Z,1002.75
2019-04-26T08:06:57.462Z,1002.70
2019-04-26T08:07:57.464Z,1002.72
2019-04-26T08:08:57.436Z,1002.62
2019-04-26T08:09:59.675Z,1002.62
2019-04-26T08:10:57.414Z,1002.68
2019-04-26T08:11:57.449Z,1002.64
2019-04-26T08:12:57.693Z,1002.63
2019-04-26T08:13:57.559Z,1002.61
2019-04-26T08:14:57.374Z,1002.60
2019-04-26T08:15:57.386Z,1002.64
2019-04-26T08:16:57.349Z,1002.57
2019-04-26T08:17:57.342Z,1002.62
2019-04-26T08:18:57.429Z,1002.61
2019-04-26T08:19:57.677Z,1002.67
2019-04-26T08:20:57.310Z,1002.69
2019-04-26T08:22:11.561Z,1002.70
2019-04-26T08:22:58.284Z,1002.73
2019-04-26T08:23:57.840Z,1002.70
2019-04-26T08:24:57.264Z,1002.68
2019-04-26T08:25:57.255Z,1002.71
2019-04-26T08:27:08.262Z,1002.71
2019-04-26T08:27:58.232Z,1002.67
2019-04-26T08:29:00.588Z,1002.65
2019-04-26T08:29:57.208Z,1002.70
2019-04-26T08:30:57.205Z,1002.58
2019-04-26T08:31:57.923Z,1002.57
2019-04-26T08:32:57.180Z,1002.59
2019-04-26T08:33:57.168Z,1002.57
2019-04-26T08:34:57.176Z,1002.57
2019-04-26T08:35:57.152Z,1002.52
2019-04-26T08:37:01.491Z,1002.52
2019-04-26T08:37:57.447Z,1002.51
2019-04-26T08:38:57.114Z,1002.50
2019-04-26T08:39:57.104Z,1002.55
2019-04-26T08:41:00.484Z,1002.52
2019-04-26T08:41:58.088Z,1002.55
2019-04-26T08:42:57.641Z,1002.54
2019-04-26T08:43:59.767Z,1002.56
2019-04-26T08:44:58.054Z,1002.54
2019-04-26T08:46:03.179Z,1002.47
2019-04-26T08:46:58.187Z,1002.48
2019-04-26T08:47:57.023Z,1002.49
2019-04-26T08:48:58.112Z,1002.53
2019-04-26T08:49:57.010Z,1002.54
2019-04-26T08:50:56.991Z,1002.52
2019-04-26T08:51:57.487Z,1002.53
2019-04-26T08:52:57.936Z,1002.52
2019-04-26T08:53:57.017Z,1002.53
2019-04-26T08:54:56.950Z,1002.57
2019-04-26T08:55:56.940Z,1002.50
2019-04-26T08:56:56.929Z,1002.51
2019-04-26T08:57:56.935Z,1002.51
2019-04-26T08:58:56.908Z,1002.51
2019-04-26T08:59:56.974Z,1002.52
2019-04-26T09:00:56.886Z,1002.56
2019-04-26T09:01:56.875Z,1002.50
2019-04-26T09:02:56.861Z,1002.47
2019-04-26T09:03:56.855Z,1002.47
2019-04-26T09:04:56.841Z,1002.41
2019-04-26T09:05:56.830Z,1002.48
2019-04-26T09:06:56.826Z,1002.45
2019-04-26T09:07:57.608Z,1002.46
2019-04-26T09:08:56.800Z,1002.49
2019-04-26T09:10:01.160Z,1002.49
2019-04-26T09:10:56.779Z,1002.42
2019-04-26T09:11:59.922Z,1002.45
2019-04-26T09:12:56.761Z,1002.42
2019-04-26T09:13:56.940Z,1002.40
2019-04-26T09:14:56.739Z,1002.41
2019-04-26T09:15:56.803Z,1002.43
2019-04-26T09:16:56.749Z,1002.44
2019-04-26T09:17:56.706Z,1002.42
2019-04-26T09:18:59.632Z,1002.44
2019-04-26T09:19:58.160Z,1002.41
2019-04-26T09:20:56.700Z,1002.39
2019-04-26T09:21:59.091Z,1002.41
2019-04-26T09:23:03.965Z,1002.42
2019-04-26T09:23:57.642Z,1002.41
2019-04-26T09:24:59.306Z,1002.40
2019-04-26T09:25:59.438Z,1002.35
2019-04-26T09:26:56.633Z,1002.38
2019-04-26T09:27:58.866Z,1002.37
2019-04-26T09:28:57.549Z,1002.33
2019-04-26T09:29:56.584Z,1002.36
2019-04-26T09:30:56.569Z,1002.39
2019-04-26T09:31:56.558Z,1002.41
2019-04-26T09:32:58.299Z,1002.40
2019-04-26T09:33:57.540Z,1002.38
2019-04-26T09:34:56.526Z,1002.37
2019-04-26T09:35:56.519Z,1002.33
2019-04-26T09:36:56.622Z,1002.35
2019-04-26T09:37:56.492Z,1002.30
2019-04-26T09:38:56.483Z,1002.29
2019-04-26T09:39:56.473Z,1002.25
2019-04-26T09:40:57.290Z,1002.26
2019-04-26T09:41:56.456Z,1002.29
2019-04-26T09:42:56.440Z,1002.25
2019-04-26T09:43:58.864Z,1002.21
2019-04-26T09:44:56.932Z,1002.25
2019-04-26T09:45:56.415Z,1002.23
2019-04-26T09:46:56.405Z,1002.19
2019-04-26T09:47:56.397Z,1002.19
2019-04-26T09:48:56.374Z,1002.21
2019-04-26T09:49:56.365Z,1002.21
2019-04-26T09:50:56.356Z,1002.23
2019-04-26T09:51:56.350Z,1002.26
2019-04-26T09:52:58.226Z,1002.24
2019-04-26T09:53:56.320Z,1002.20
2019-04-26T09:54:56.339Z,1002.18
2019-04-26T09:55:56.299Z,1002.21
2019-04-26T09:56:56.290Z,1002.16
2019-04-26T09:57:56.998Z,1002.15
2019-04-26T09:58:56.270Z,1002.16
2019-04-26T09:59:56.255Z,1002.15
2019-04-26T10:00:56.251Z,1002.16
2019-04-26T10:01:59.433Z,1002.15
2019-04-26T10:02:56.231Z,1002.16
2019-04-26T10:03:56.216Z,1002.13
2019-04-26T10:04:56.203Z,1002.14
2019-04-26T10:05:57.097Z,1002.19
2019-04-26T10:06:59.509Z,1002.18
2019-04-26T10:07:56.169Z,1002.17
2019-04-26T10:08:56.160Z,1002.17
2019-04-26T10:10:00.780Z,1002.16
2019-04-26T10:10:56.138Z,1002.13
2019-04-26T10:11:56.125Z,1002.15
2019-04-26T10:12:56.117Z,1002.11
2019-04-26T10:13:56.106Z,1002.12
2019-04-26T10:14:56.098Z,1002.13
2019-04-26T10:15:58.062Z,1002.11
2019-04-26T10:16:57.074Z,1002.12
2019-04-26T10:17:56.063Z,1002.13
2019-04-26T10:18:58.319Z,1002.13
2019-04-26T10:19:56.045Z,1002.17
2019-04-26T10:20:56.033Z,1002.14
2019-04-26T10:21:56.025Z,1002.16
2019-04-26T10:22:56.007Z,1002.20
2019-04-26T10:23:55.998Z,1002.14
2019-04-26T10:24:55.986Z,1002.17
2019-04-26T10:25:55.976Z,1002.21
2019-04-26T10:26:59.236Z,1002.20
2019-04-26T10:27:55.953Z,1002.16
2019-04-26T10:28:55.948Z,1002.21
2019-04-26T10:30:07.213Z,1002.26
2019-04-26T10:30:56.923Z,1002.27
2019-04-26T10:31:55.913Z,1002.31
2019-04-26T10:32:58.262Z,1002.30
2019-04-26T10:33:56.888Z,1002.26
2019-04-26T10:34:55.880Z,1002.22
2019-04-26T10:35:56.679Z,1002.20
2019-04-26T10:36:57.066Z,1002.23
2019-04-26T10:37:55.849Z,1002.24
2019-04-26T10:38:58.358Z,1002.21
2019-04-26T10:39:55.829Z,1002.20
2019-04-26T10:40:55.817Z,1002.22
2019-04-26T10:41:55.805Z,1002.15
2019-04-26T10:42:55.805Z,1002.17
2019-04-26T10:43:55.787Z,1002.22
2019-04-26T10:44:55.801Z,1002.19
2019-04-26T10:45:55.764Z,1002.21
2019-04-26T10:46:55.973Z,1002.27
2019-04-26T10:47:55.740Z,1002.27
2019-04-26T10:49:07.879Z,1002.24
2019-04-26T10:49:58.274Z,1002.28
2019-04-26T10:50:55.707Z,1002.23
2019-04-26T10:51:55.696Z,1002.25
2019-04-26T10:52:55.790Z,1002.25
2019-04-26T10:53:55.676Z,1002.24
2019-04-26T10:54:55.664Z,1002.24
2019-04-26T10:55:55.662Z,1002.23
2019-04-26T10:56:55.641Z,1002.21
2019-04-26T10:57:55.633Z,1002.23
2019-04-26T10:58:55.624Z,1002.18
2019-04-26T10:59:55.629Z,1002.21
2019-04-26T11:00:55.601Z,1002.19
2019-04-26T11:01:55.597Z,1002.20
2019-04-26T11:02:55.577Z,1002.15
2019-04-26T11:03:55.567Z,1002.17
2019-04-26T11:04:55.561Z,1002.11
2019-04-26T11:05:55.548Z,1002.09
2019-04-26T11:06:58.028Z,1002.08
2019-04-26T11:07:56.523Z,1002.10
2019-04-26T11:08:55.518Z,1002.06
2019-04-26T11:09:55.503Z,1002.07
2019-04-26T11:10:55.492Z,1002.09
2019-04-26T11:11:55.483Z,1002.09
2019-04-26T11:12:55.483Z,1002.05
2019-04-26T11:13:57.518Z,1002.03
2019-04-26T11:14:56.995Z,1002.06
2019-04-26T11:15:55.439Z,1002.08
2019-04-26T11:16:55.432Z,1002.08
2019-04-26T11:17:55.421Z,1002.08
2019-04-26T11:18:57.158Z,1002.09
2019-04-26T11:19:56.399Z,1002.08
2019-04-26T11:20:55.388Z,1002.10
2019-04-26T11:21:56.008Z,1002.07
2019-04-26T11:22:55.374Z,1002.06
2019-04-26T11:23:55.362Z,1002.08
2019-04-26T11:24:55.365Z,1002.08
2019-04-26T11:25:57.902Z,1002.04
2019-04-26T11:26:56.324Z,1002.06
2019-04-26T11:27:55.315Z,1002.06
2019-04-26T11:28:56.034Z,1002.07
2019-04-26T11:29:55.416Z,1002.09
2019-04-26T11:30:57.311Z,1002.05
2019-04-26T11:31:58.477Z,1002.06
2019-04-26T11:32:56.271Z,1002.06
2019-04-26T11:34:04.734Z,1002.04
2019-04-26T11:34:58.806Z,1002.03
2019-04-26T11:35:55.241Z,1001.98
2019-04-26T11:36:55.239Z,1002.03
2019-04-26T11:37:56.930Z,1002.02
2019-04-26T11:38:55.200Z,1002.05
2019-04-26T11:39:55.239Z,1002.02
2019-04-26T11:41:05.890Z,1001.99
2019-04-26T11:41:56.165Z,1001.98
2019-04-26T11:42:55.159Z,1002.00
2019-04-26T11:43:55.229Z,1001.97
2019-04-26T11:45:05.723Z,1001.98
2019-04-26T11:46:04.150Z,1002.00
2019-04-26T11:46:59.349Z,1001.95
2019-04-26T11:47:56.689Z,1001.96
2019-04-26T11:48:59.124Z,1001.96
2019-04-26T11:49:55.146Z,1001.98
2019-04-26T11:50:55.070Z,1001.95
2019-04-26T11:51:58.600Z,1001.99
2019-04-26T11:52:56.051Z,1002.02
2019-04-26T11:53:55.037Z,1002.00
2019-04-26T11:54:55.426Z,1002.01
2019-04-26T11:55:55.016Z,1001.96
2019-04-26T11:56:55.005Z,1001.97
2019-04-26T11:57:54.995Z,1002.02
2019-04-26T11:58:56.750Z,1001.99
2019-04-26T11:59:54.974Z,1002.01
2019-04-26T12:00:54.966Z,1002.00
2019-04-26T12:01:54.952Z,1002.01
2019-04-26T12:02:54.973Z,1002.02
2019-04-26T12:03:55.658Z,1002.03
2019-04-26T12:04:55.110Z,1002.03